Time;durP1;ratioP1;P1;durP2;ratioP2;P2;SDS_P1;SDS_P2;PMS_P1;PMS_P2;Temp;Humidity;BMP_temperature;BMP_pressure;BME280_temperature;BME280_humidity;BME280_pressure;Samples;Min_cycle;Max_cycle;Signal;HPM_P1;HPM_P2
2023/03/27 00:00:58;;;;;;;24.13;3.05;;;;;;;3.82;76.63;100807.34;5075085;28;20052;-57
2023/03/27 00:03:27;;;;;;;21.52;2.85;;;;;;;3.83;78.54;100809.88;5069083;28;20120;-57
2023/03/27 00:06:04;;;;;;;19.08;2.78;;;;;;;3.79;77.10;100812.84;5074916;28;20041;-57
2023/03/27 00:08:31;;;;;;;12.15;2.70;;;;;;;3.72;77.44;100815.03;5078376;28;20051;-57
2023/03/27 00:10:58;;;;;;;29.70;3.28;;;;;;;3.62;78.43;100825.34;5090978;28;20056;-57
2023/03/27 00:13:26;;;;;;;20.85;2.80;;;;;;;3.51;78.28;100825.28;5093895;28;20101;-57
2023/03/27 00:15:54;;;;;;;17.77;3.35;;;;;;;3.44;78.46;100830.09;5088717;28;20089;-57
2023/03/27 00:18:22;;;;;;;15.90;2.85;;;;;;;3.51;78.32;100833.13;5094799;28;20048;-57
2023/03/27 00:20:50;;;;;;;14.98;2.65;;;;;;;3.50;78.74;100835.88;5089501;28;20101;-57
2023/03/27 00:23:18;;;;;;;24.20;3.70;;;;;;;3.52;78.26;100840.03;5094219;28;20501;-57
2023/03/27 00:25:48;;;;;;;18.42;2.42;;;;;;;3.41;79.05;100834.72;5085815;28;20490;-59
2023/03/27 00:28:17;;;;;;;17.95;2.67;;;;;;;3.50;78.78;100841.94;5095001;28;20055;-58
2023/03/27 00:30:44;;;;;;;19.35;2.90;;;;;;;3.41;79.64;100847.81;5089233;28;20762;-57
2023/03/27 00:33:12;;;;;;;14.93;2.45;;;;;;;3.42;80.19;100854.72;5094542;28;20093;-57
2023/03/27 00:35:45;;;;;;;21.73;2.92;;;;;;;3.48;79.31;100856.13;5089740;28;20357;-57
2023/03/27 00:38:13;;;;;;;15.35;2.70;;;;;;;3.40;79.75;100860.09;5092462;28;20070;-57
2023/03/27 00:40:42;;;;;;;16.95;2.90;;;;;;;3.39;80.18;100874.16;5069288;28;20044;-57
2023/03/27 00:43:27;;;;;;;16.00;2.45;;;;;;;3.45;79.70;100867.63;5070284;28;20048;-57
2023/03/27 00:46:00;;;;;;;17.25;3.05;;;;;;;3.41;79.27;100861.75;5073672;28;20080;-57
2023/03/27 00:48:30;;;;;;;17.63;2.33;;;;;;;3.37;79.48;100875.22;5068935;28;20052;-57
2023/03/27 00:50:57;;;;;;;14.32;2.50;;;;;;;3.22;80.42;100875.28;5074598;28;20044;-57
2023/03/27 00:53:27;;;;;;;16.48;2.55;;;;;;;3.37;80.26;100880.44;5068424;28;20049;-58
2023/03/27 00:55:59;;;;;;;20.20;2.38;;;;;;;3.28;80.61;100887.16;5073207;28;20044;-57
2023/03/27 00:58:39;;;;;;;15.82;2.85;;;;;;;3.23;79.92;100895.31;5065440;28;20059;-57
2023/03/27 01:01:09;;;;;;;13.93;2.05;;;;;;;3.32;80.20;100896.47;5072886;28;20052;-57
2023/03/27 01:03:40;;;;;;;13.02;2.42;;;;;;;3.32;79.34;100903.53;5070210;28;20079;-57
2023/03/27 01:06:09;;;;;;;16.17;2.30;;;;;;;3.26;79.80;100899.53;5073127;28;20114;-57
2023/03/27 01:08:37;;;;;;;11.35;2.20;;;;;;;3.19;80.68;100901.72;5079284;28;20052;-57
2023/03/27 01:11:28;;;;;;;19.40;2.45;;;;;;;3.15;79.83;100902.03;5093561;28;20063;-57
2023/03/27 01:17:09;;;;;;;10.38;2.08;;;;;;;3.15;80.63;100920.38;5110437;27;20713;-58
2023/03/27 01:20:09;;;;;;;19.42;2.70;;;;;;;3.11;79.95;100926.75;5107817;28;20044;-57
2023/03/27 01:22:59;;;;;;;16.80;3.20;;;;;;;3.02;80.30;100923.81;5109471;28;20511;-57
2023/03/27 01:26:06;;;;;;;19.35;2.67;;;;;;;3.04;80.47;100919.31;5106075;28;20047;-57
2023/03/27 01:28:56;;;;;;;20.85;3.10;;;;;;;2.99;80.51;100925.78;5110137;28;20055;-57
2023/03/27 01:31:56;;;;;;;18.98;2.92;;;;;;;2.92;81.02;100927.13;5101751;28;20050;-57
2023/03/27 01:35:01;;;;;;;10.25;1.88;;;;;;;2.95;80.64;100940.00;5110666;28;20047;-57
2023/03/27 01:40:18;;;;;;;19.88;2.70;;;;;;;2.99;81.03;100941.50;5069560;28;20387;-56
2023/03/27 01:42:54;;;;;;;14.30;2.58;;;;;;;3.03;80.77;100945.59;5066155;28;20547;-57
2023/03/27 01:45:27;;;;;;;11.43;2.42;;;;;;;3.11;80.35;100939.84;5051596;28;20049;-58
2023/03/27 01:50:41;;;;;;;13.95;2.38;;;;;;;3.03;80.09;100959.53;5111227;27;20358;-56
2023/03/27 01:53:31;;;;;;;16.92;2.30;;;;;;;3.06;80.83;100961.16;5105816;28;20519;-57
2023/03/27 01:56:09;;;;;;;13.50;2.13;;;;;;;3.03;80.99;100963.97;5109869;28;20047;-56
2023/03/27 01:58:45;;;;;;;11.98;2.53;;;;;;;3.01;80.83;100973.69;5105749;28;20039;-56
2023/03/27 02:01:17;;;;;;;20.10;2.60;;;;;;;2.91;80.53;100968.22;5109797;28;20070;-56
2023/03/27 02:03:50;;;;;;;10.30;1.90;;;;;;;2.86;81.78;100972.91;5101523;28;20460;-56
2023/03/27 02:06:22;;;;;;;22.70;2.63;;;;;;;2.92;80.20;100972.50;5109597;28;20401;-56
2023/03/27 02:09:14;;;;;;;11.85;2.20;;;;;;;2.90;80.66;100984.88;5089822;28;20047;-56
2023/03/27 02:11:53;;;;;;;16.77;2.70;;;;;;;2.87;80.39;100979.81;5131146;27;20047;-57
2023/03/27 02:14:24;;;;;;;17.63;2.20;;;;;;;2.88;80.53;100981.53;5115371;27;20093;-56
2023/03/27 02:16:56;;;;;;;14.65;2.15;;;;;;;2.98;81.06;100992.25;5110246;28;20048;-58
2023/03/27 02:19:33;;;;;;;14.80;2.17;;;;;;;2.85;81.07;100997.44;5101714;28;20044;-57
2023/03/27 02:22:01;;;;;;;11.15;2.35;;;;;;;2.81;81.05;100998.56;5109293;28;20039;-57
2023/03/27 02:24:37;;;;;;;11.07;2.28;;;;;;;2.68;81.46;100988.84;5106724;28;20520;-56
2023/03/27 02:27:16;;;;;;;20.35;2.80;;;;;;;2.91;81.15;101018.03;5109626;28;20097;-58
2023/03/27 02:32:39;;;;;;;15.38;2.38;;;;;;;2.76;82.48;101021.59;5110360;27;20386;-57
2023/03/27 02:35:44;;;;;;;18.55;2.53;;;;;;;2.65;82.37;101019.66;5105930;28;20085;-58
2023/03/27 02:38:22;;;;;;;15.48;3.03;;;;;;;2.67;81.85;101023.88;5106384;28;20055;-57
2023/03/27 02:40:59;;;;;;;19.33;2.80;;;;;;;2.67;81.95;101031.72;5109130;28;20040;-57
2023/03/27 02:43:58;;;;;;;13.65;2.53;;;;;;;2.59;82.28;101035.75;5104219;28;20052;-56
2023/03/27 02:46:50;;;;;;;13.43;2.75;;;;;;;2.58;82.68;101034.06;5106639;28;20513;-56
2023/03/27 02:49:26;;;;;;;19.98;2.70;;;;;;;2.63;82.21;101043.31;5109944;28;20396;-56
2023/03/27 02:52:03;;;;;;;24.95;3.00;;;;;;;2.65;82.36;101048.47;5104202;28;20046;-56
2023/03/27 02:54:37;;;;;;;14.23;2.17;;;;;;;2.63;82.69;101047.72;5107163;28;20040;-55
2023/03/27 02:57:10;;;;;;;19.67;2.90;;;;;;;2.59;82.70;101052.31;5109621;28;20405;-56
2023/03/27 03:00:11;;;;;;;20.67;2.85;;;;;;;2.54;83.08;101054.38;5107464;28;20036;-56
2023/03/27 03:02:44;;;;;;;13.98;2.30;;;;;;;2.47;83.79;101055.66;5104882;28;20541;-56
2023/03/27 03:05:19;;;;;;;9.52;2.10;;;;;;;2.46;84.39;101067.94;5109261;28;20467;-58
2023/03/27 03:07:47;;;;;;;14.35;2.33;;;;;;;2.39;83.60;101068.41;5099804;28;20106;-56
2023/03/27 03:10:15;;;;;;;17.85;2.70;;;;;;;2.37;83.82;101076.34;5117752;28;20134;-57
2023/03/27 03:12:42;;;;;;;13.15;2.72;;;;;;;2.38;83.96;101077.19;5130020;27;20108;-58
2023/03/27 03:15:10;;;;;;;11.38;2.05;;;;;;;2.38;84.06;101085.03;5108312;27;20585;-57
2023/03/27 03:17:37;;;;;;;10.77;2.30;;;;;;;2.39;84.51;101086.75;5110224;28;20040;-57
2023/03/27 03:20:06;;;;;;;14.40;2.72;;;;;;;2.37;84.94;101088.59;5104474;28;20432;-58
2023/03/27 03:22:35;;;;;;;16.77;2.85;;;;;;;2.32;84.87;101090.66;5109055;28;20047;-58
2023/03/27 03:25:02;;;;;;;14.00;2.80;;;;;;;2.33;85.31;101092.31;5105261;28;20043;-58
2023/03/27 03:27:30;;;;;;;11.30;2.30;;;;;;;2.32;85.41;101095.91;5105520;28;20044;-57
2023/03/27 03:30:04;;;;;;;15.77;2.38;;;;;;;2.33;84.99;101106.28;5109393;28;20134;-58
2023/03/27 03:32:38;;;;;;;11.40;2.25;;;;;;;2.23;85.39;101103.34;5104799;28;20036;-57
2023/03/27 03:35:07;;;;;;;21.55;2.53;;;;;;;2.30;85.29;101106.44;5107980;28;20048;-58
2023/03/27 03:37:37;;;;;;;11.23;2.47;;;;;;;2.39;85.65;101110.31;5087349;28;20047;-57
2023/03/27 03:40:10;;;;;;;14.10;2.45;;;;;;;2.26;85.46;101110.19;5092026;28;20076;-56
2023/03/27 03:42:44;;;;;;;10.82;2.53;;;;;;;2.28;85.51;101117.00;5072441;28;20032;-56
2023/03/27 03:45:11;;;;;;;18.48;2.58;;;;;;;2.30;85.67;101128.22;5092603;28;20054;-56
2023/03/27 03:47:38;;;;;;;11.85;2.30;;;;;;;2.23;85.45;101124.28;5092124;28;20052;-56
2023/03/27 03:50:05;;;;;;;18.15;2.72;;;;;;;2.27;86.16;101133.66;5094409;28;20135;-56
2023/03/27 03:52:32;;;;;;;20.35;2.90;;;;;;;2.38;85.99;101134.78;5092294;28;20093;-56
2023/03/27 03:55:00;;;;;;;10.00;2.42;;;;;;;2.40;86.30;101140.78;5095458;28;20098;-56
2023/03/27 03:57:26;;;;;;;19.70;3.20;;;;;;;2.28;86.78;101142.34;5093096;28;20047;-56
2023/03/27 04:00:07;;;;;;;17.00;2.35;;;;;;;2.43;86.68;101148.47;5091102;28;20046;-56
2023/03/27 04:02:53;;;;;;;18.90;2.47;;;;;;;2.23;86.34;101152.25;5095060;28;20078;-56
2023/03/27 04:05:21;;;;;;;17.02;2.80;;;;;;;2.29;87.03;101157.13;5090153;28;20405;-56
2023/03/27 04:07:51;;;;;;;12.93;3.45;;;;;;;2.32;87.18;101156.13;5094202;28;20056;-56
2023/03/27 04:10:29;;;;;;;13.40;2.78;;;;;;;2.27;87.03;101156.38;5079584;28;20128;-58
2023/03/27 04:12:58;;;;;;;13.23;2.20;;;;;;;2.26;87.33;101158.16;5074478;28;20090;-56
2023/03/27 04:15:27;;;;;;;17.67;3.00;;;;;;;2.23;86.72;101157.50;5085360;28;20068;-56
2023/03/27 04:18:15;;;;;;;14.70;2.85;;;;;;;2.33;87.57;101166.50;5094616;28;20085;-56
2023/03/27 04:20:42;;;;;;;14.30;2.65;;;;;;;2.26;86.86;101162.56;5090203;28;20145;-58
2023/03/27 04:23:12;;;;;;;15.30;2.58;;;;;;;2.17;87.97;101178.81;5094602;28;20105;-56
2023/03/27 04:25:39;;;;;;;15.25;2.95;;;;;;;2.23;87.62;101171.41;5090619;28;20044;-56
2023/03/27 04:28:09;;;;;;;17.40;2.72;;;;;;;2.25;87.81;101179.19;5094642;28;20067;-56
2023/03/27 04:30:42;;;;;;;13.70;3.03;;;;;;;2.22;88.25;101180.22;5090396;28;20101;-56
2023/03/27 04:33:29;;;;;;;16.83;2.70;;;;;;;2.11;88.37;101182.59;5090412;28;20130;-56
2023/03/27 04:36:17;;;;;;;29.63;3.85;;;;;;;2.23;88.27;101189.75;5093911;28;20139;-56
2023/03/27 04:38:53;;;;;;;12.00;2.92;;;;;;;2.20;88.41;101197.78;5089203;28;20044;-56
2023/03/27 04:41:20;;;;;;;17.25;3.28;;;;;;;2.21;89.17;101196.84;5093758;28;20404;-56
2023/03/27 04:43:47;;;;;;;13.70;2.63;;;;;;;2.29;89.22;101202.50;5089720;28;20501;-56
2023/03/27 04:46:14;;;;;;;18.70;3.17;;;;;;;2.35;88.51;101201.28;5094733;28;20044;-56
2023/03/27 04:48:42;;;;;;;12.93;2.92;;;;;;;2.32;88.72;101211.09;5085725;28;20036;-56
2023/03/27 04:51:18;;;;;;;14.25;2.80;;;;;;;2.36;88.85;101215.22;5094686;28;20123;-57
2023/03/27 04:53:45;;;;;;;22.80;3.72;;;;;;;2.29;88.76;101210.34;5088620;28;20047;-56
2023/03/27 04:56:13;;;;;;;14.50;2.50;;;;;;;2.47;88.58;101223.28;5093352;28;20915;-56
2023/03/27 04:58:44;;;;;;;14.32;3.05;;;;;;;2.46;88.76;101221.63;5087651;28;20048;-56
2023/03/27 05:01:13;;;;;;;12.70;2.95;;;;;;;2.43;88.40;101219.16;5094199;28;20512;-56
2023/03/27 05:04:01;;;;;;;17.67;3.38;;;;;;;2.43;88.07;101224.41;5088876;28;20048;-56
2023/03/27 05:06:36;;;;;;;20.65;2.95;;;;;;;2.52;87.71;101220.41;5093379;28;20412;-56
2023/03/27 05:09:09;;;;;;;16.60;3.50;;;;;;;2.62;87.48;101227.63;5094334;28;20044;-56
2023/03/27 05:11:37;;;;;;;23.95;3.25;;;;;;;2.60;87.59;101233.88;5089058;28;20441;-56
2023/03/27 05:14:04;;;;;;;12.90;2.97;;;;;;;2.48;88.20;101230.22;5092507;28;20122;-57
2023/03/27 05:16:34;;;;;;;14.85;3.20;;;;;;;2.62;88.18;101237.25;5088610;28;20048;-57
2023/03/27 05:19:03;;;;;;;14.68;3.00;;;;;;;2.64;88.89;101248.50;5093638;28;20050;-57
2023/03/27 05:21:38;;;;;;;22.83;3.97;;;;;;;2.66;88.70;101244.84;5084943;28;20071;-57
2023/03/27 05:24:09;;;;;;;18.98;3.40;;;;;;;2.63;88.31;101254.66;5093272;28;20063;-57
2023/03/27 05:26:38;;;;;;;13.68;3.00;;;;;;;2.79;88.53;101262.47;5087421;28;20048;-57
2023/03/27 05:29:04;;;;;;;14.15;3.72;;;;;;;2.74;89.22;101261.91;5092951;28;20051;-57
2023/03/27 05:31:34;;;;;;;11.57;3.13;;;;;;;2.78;88.95;101272.09;5088138;28;20048;-57
2023/03/27 05:34:21;;;;;;;19.33;3.85;;;;;;;2.73;89.05;101268.91;5092470;28;20082;-57
2023/03/27 05:36:52;;;;;;;14.05;3.78;;;;;;;2.88;89.82;101269.78;5084439;28;20052;-57
2023/03/27 05:39:19;;;;;;;21.38;4.00;;;;;;;2.85;89.74;101278.66;5082738;28;20102;-57
2023/03/27 05:41:46;;;;;;;22.33;3.92;;;;;;;2.84;89.58;101279.59;5067454;28;20264;-57
2023/03/27 05:44:20;;;;;;;18.25;3.80;;;;;;;2.84;89.74;101284.00;5082800;28;20125;-57
2023/03/27 05:46:48;;;;;;;20.80;3.53;;;;;;;2.75;89.74;101276.66;5088255;28;20048;-57
2023/03/27 05:49:21;;;;;;;23.77;4.00;;;;;;;2.80;89.90;101293.81;5092408;28;20374;-57
2023/03/27 05:51:53;;;;;;;17.23;4.05;;;;;;;2.85;90.05;101293.53;5087941;28;20086;-57
2023/03/27 05:54:20;;;;;;;18.80;4.00;;;;;;;2.89;90.00;101297.66;5089442;28;20046;-57
2023/03/27 05:57:00;;;;;;;21.48;3.65;;;;;;;3.01;89.71;101303.97;5091568;28;20447;-57
2023/03/27 05:59:26;;;;;;;14.07;3.45;;;;;;;2.83;89.86;101304.09;5088254;28;20173;-57
2023/03/27 06:01:59;;;;;;;20.30;4.05;;;;;;;2.92;90.09;101304.50;5091904;28;20044;-57
2023/03/27 06:04:39;;;;;;;25.90;3.67;;;;;;;2.83;90.04;101306.72;5088059;28;20052;-58
2023/03/27 06:07:13;;;;;;;17.40;4.07;;;;;;;2.98;89.92;101318.06;5092746;28;20048;-57
2023/03/27 06:09:40;;;;;;;13.68;3.63;;;;;;;3.02;89.79;101321.38;5084098;28;20044;-57
2023/03/27 06:12:27;;;;;;;19.38;3.90;;;;;;;3.04;89.15;101316.91;5093077;28;20066;-57
2023/03/27 06:15:06;;;;;;;19.83;4.05;;;;;;;3.03;89.23;101320.44;5087590;28;20101;-58
2023/03/27 06:17:39;;;;;;;14.85;3.63;;;;;;;2.93;89.71;101330.63;5090968;28;20146;-57
2023/03/27 06:20:11;;;;;;;17.33;4.30;;;;;;;2.84;90.30;101323.31;5088598;28;20048;-56
2023/03/27 06:22:44;;;;;;;19.65;3.67;;;;;;;2.96;89.87;101326.97;5092329;28;20044;-57
2023/03/27 06:25:13;;;;;;;21.20;4.38;;;;;;;3.08;88.93;101336.75;5082867;28;20093;-56
2023/03/27 06:27:42;;;;;;;18.55;3.53;;;;;;;3.14;88.60;101344.22;5091682;28;20048;-57
2023/03/27 06:30:10;;;;;;;19.33;4.25;;;;;;;3.17;88.99;101346.69;5092558;28;20040;-56
2023/03/27 06:32:43;;;;;;;14.52;3.70;;;;;;;3.07;88.71;101343.78;5087281;28;20396;-57
2023/03/27 06:35:13;;;;;;;17.08;4.00;;;;;;;3.20;88.94;101358.75;5100983;28;20039;-57
2023/03/27 06:37:50;;;;;;;16.88;3.60;;;;;;;3.30;88.61;101361.69;5110227;28;20048;-57
2023/03/27 06:40:22;;;;;;;18.23;3.92;;;;;;;3.35;88.35;101352.59;5091308;28;20048;-57
2023/03/27 06:42:54;;;;;;;16.42;3.47;;;;;;;3.53;87.28;101355.91;5086024;28;20048;-57
2023/03/27 06:45:29;;;;;;;14.25;3.60;;;;;;;3.50;86.93;101355.25;5092219;28;20052;-58
2023/03/27 06:48:17;;;;;;;15.73;4.28;;;;;;;3.56;87.07;101365.34;5085187;28;20051;-56
2023/03/27 06:50:50;;;;;;;21.25;3.60;;;;;;;3.62;87.47;101360.59;5060315;28;20047;-56
2023/03/27 06:53:19;;;;;;;20.20;4.03;;;;;;;3.69;85.56;101361.03;5100548;28;20076;-56
2023/03/27 06:55:49;;;;;;;12.55;3.45;;;;;;;3.86;85.05;101367.88;5093682;28;20043;-56
2023/03/27 06:58:17;;;;;;;10.07;3.65;;;;;;;3.80;85.25;101365.63;5094413;28;20044;-56
2023/03/27 07:00:45;;;;;;;16.50;3.60;;;;;;;3.91;84.69;101367.59;5091591;28;20040;-56
2023/03/27 07:03:22;;;;;;;17.60;4.07;;;;;;;3.86;84.88;101383.63;5107395;28;20389;-56
2023/03/27 07:06:09;;;;;;;33.13;7.85;;;;;;;3.87;83.82;101376.59;5078018;28;20044;-56
2023/03/27 07:08:47;;;;;;;18.35;4.47;;;;;;;4.04;83.52;101384.28;5085044;28;20738;-57
2023/03/27 07:11:15;;;;;;;22.58;4.45;;;;;;;4.17;82.78;101384.34;5073920;28;20087;-57
2023/03/27 07:13:50;;;;;;;14.10;3.53;;;;;;;4.04;83.85;101397.41;5100934;28;20048;-57
2023/03/27 07:16:26;;;;;;;18.20;3.90;;;;;;;3.91;84.36;101391.22;5083642;28;20074;-57
2023/03/27 07:18:53;;;;;;;14.98;3.20;;;;;;;3.94;84.44;101399.75;5111422;28;20040;-57
2023/03/27 07:21:19;;;;;;;16.20;4.53;;;;;;;4.05;83.71;101406.94;5086290;28;20400;-57
2023/03/27 07:23:46;;;;;;;12.80;3.50;;;;;;;4.12;82.43;101416.13;5102509;28;20117;-57
2023/03/27 07:26:17;;;;;;;13.10;3.50;;;;;;;4.09;82.79;101420.72;5088356;28;20058;-57
2023/03/27 07:28:53;;;;;;;15.57;3.00;;;;;;;4.04;82.46;101415.78;5098868;28;20083;-58
2023/03/27 07:31:21;;;;;;;15.48;2.95;;;;;;;4.01;82.09;101416.81;5082713;28;20571;-58
2023/03/27 07:33:50;;;;;;;15.43;3.15;;;;;;;4.03;82.34;101425.41;5101766;28;20044;-58
2023/03/27 07:36:26;;;;;;;11.57;3.28;;;;;;;4.30;80.36;101422.03;5078918;28;20425;-57
2023/03/27 07:39:03;;;;;;;18.02;4.55;;;;;;;4.02;83.23;101426.38;5095235;28;20094;-58
2023/03/27 07:41:30;;;;;;;13.52;3.17;;;;;;;4.07;83.35;101422.63;5072673;28;20485;-58
2023/03/27 07:44:07;;;;;;;17.15;3.40;;;;;;;4.27;83.30;101427.47;5110662;27;20907;-57
2023/03/27 07:46:45;;;;;;;15.45;3.78;;;;;;;4.20;83.02;101437.53;5093333;27;20127;-57
2023/03/27 07:49:12;;;;;;;16.70;3.90;;;;;;;4.31;83.13;101434.22;5108742;27;20054;-57
2023/03/27 07:51:39;;;;;;;16.55;3.88;;;;;;;4.38;82.85;101438.16;5101536;27;20126;-57
2023/03/27 07:54:06;;;;;;;13.65;3.10;;;;;;;4.60;82.78;101437.63;5124135;27;20158;-57
2023/03/27 07:56:36;;;;;;;13.15;3.13;;;;;;;4.53;80.73;101436.34;5110045;27;20177;-57
2023/03/27 07:59:20;;;;;;;14.25;3.15;;;;;;;4.63;81.80;101441.00;5107217;27;20051;-57
2023/03/27 08:01:49;;;;;;;12.70;2.85;;;;;;;4.57;78.68;101447.50;5092421;27;20051;-57
2023/03/27 08:04:17;;;;;;;23.60;3.22;;;;;;;4.75;79.65;101448.94;5118048;27;20051;-57
2023/03/27 08:06:58;;;;;;;23.27;3.37;;;;;;;5.02;78.87;101444.59;5109478;27;20062;-57
2023/03/27 08:09:25;;;;;;;16.90;2.78;;;;;;;5.07;75.95;101455.66;5105747;28;20488;-57
2023/03/27 08:11:52;;;;;;;13.95;3.03;;;;;;;5.16;76.20;101453.25;5092408;28;20044;-57
2023/03/27 08:14:19;;;;;;;16.80;3.17;;;;;;;5.42;74.43;101458.59;5079875;28;20232;-57
2023/03/27 08:16:46;;;;;;;15.57;3.28;;;;;;;5.53;74.95;101455.22;5105634;27;20408;-57
2023/03/27 08:19:13;;;;;;;11.52;2.42;;;;;;;5.46;72.76;101464.50;5119402;27;20051;-57
2023/03/27 08:21:45;;;;;;;12.90;2.80;;;;;;;5.48;74.20;101459.97;5080854;27;20050;-57
2023/03/27 08:24:12;;;;;;;11.15;2.65;;;;;;;5.47;72.05;101467.00;5102976;28;20075;-57
2023/03/27 08:26:58;;;;;;;26.13;3.60;;;;;;;5.17;72.15;101457.59;5096438;28;20043;-54
2023/03/27 08:29:25;;;;;;;13.77;3.03;;;;;;;5.13;72.88;101465.78;5106929;28;20042;-57
2023/03/27 08:31:52;;;;;;;13.90;2.65;;;;;;;5.24;71.45;101472.97;5102637;27;20150;-57
2023/03/27 08:34:20;;;;;;;16.15;2.78;;;;;;;5.39;70.46;101471.94;5108331;28;20507;-57
2023/03/27 08:36:51;;;;;;;18.83;2.88;;;;;;;5.64;69.98;101468.50;5085537;28;20047;-57
2023/03/27 08:39:21;;;;;;;11.75;2.60;;;;;;;5.63;69.23;101468.63;5086871;28;20131;-57
2023/03/27 08:41:59;;;;;;;24.40;3.53;;;;;;;5.67;69.04;101477.97;5086972;28;20510;-58
2023/03/27 08:44:32;;;;;;;11.23;2.40;;;;;;;5.38;67.52;101492.16;5102963;28;20044;-57
2023/03/27 08:47:14;;;;;;;14.82;3.15;;;;;;;5.52;68.27;101487.75;5089600;28;20048;-57
2023/03/27 08:49:54;;;;;;;19.10;3.25;;;;;;;5.47;68.06;101492.50;5104548;28;20524;-57
2023/03/27 08:52:32;;;;;;;15.80;2.90;;;;;;;5.68;68.45;101506.00;5117851;28;20439;-57
2023/03/27 08:55:17;;;;;;;13.95;2.92;;;;;;;5.58;69.65;101505.75;5113485;27;20622;-57
2023/03/27 08:57:51;;;;;;;14.00;2.63;;;;;;;5.92;68.40;101509.59;5085799;28;20658;-58
2023/03/27 09:00:28;;;;;;;20.13;3.35;;;;;;;5.73;66.05;101514.41;5107150;28;20052;-58
2023/03/27 09:03:19;;;;;;;15.80;3.00;;;;;;;5.41;65.45;101524.47;5110458;28;20132;-58
2023/03/27 09:05:55;;;;;;;18.02;3.22;;;;;;;5.68;66.43;101524.44;5104342;28;20038;-57
2023/03/27 09:08:48;;;;;;;17.52;3.53;;;;;;;5.97;63.57;101527.75;5098603;28;20039;-57
2023/03/27 09:11:31;;;;;;;13.20;2.95;;;;;;;6.15;62.10;101534.38;5083537;28;20048;-58
2023/03/27 09:14:11;;;;;;;16.70;3.20;;;;;;;6.62;60.46;101534.66;5092115;28;20146;-57
2023/03/27 09:16:48;;;;;;;11.55;2.60;;;;;;;6.96;60.06;101526.09;5089359;28;20074;-58
2023/03/27 09:19:38;;;;;;;14.90;2.80;;;;;;;7.53;57.04;101529.84;5092856;28;20042;-58
2023/03/27 09:22:30;;;;;;;16.52;2.53;;;;;;;7.14;56.28;101524.75;5082444;28;20048;-58
2023/03/27 09:25:33;;;;;;;16.42;2.90;;;;;;;6.49;60.91;101531.19;5058961;28;20123;-58
2023/03/27 09:28:21;;;;;;;10.95;2.70;;;;;;;6.15;63.74;101534.38;5094047;28;20077;-58
2023/03/27 09:31:28;;;;;;;14.57;3.05;;;;;;;6.09;66.27;101542.72;5091232;28;20047;-58
2023/03/27 09:34:00;;;;;;;18.02;3.03;;;;;;;5.84;66.18;101545.28;5107651;28;20051;-58
2023/03/27 09:36:27;;;;;;;13.75;2.85;;;;;;;5.77;63.19;101535.19;5107001;28;20507;-59
2023/03/27 09:39:04;;;;;;;20.20;3.20;;;;;;;8.04;57.82;101540.03;5104249;28;20427;-58
2023/03/27 09:41:37;;;;;;;17.70;3.10;;;;;;;9.76;52.86;101544.78;5063191;28;20067;-58
2023/03/27 09:44:11;;;;;;;19.00;3.20;;;;;;;11.40;48.88;101546.50;5087059;28;20529;-58
2023/03/27 09:46:45;;;;;;;12.07;2.78;;;;;;;10.52;48.74;101541.84;5089351;28;20047;-58
2023/03/27 09:49:16;;;;;;;14.30;3.17;;;;;;;8.78;52.29;101544.88;5087555;28;20066;-58
2023/03/27 09:51:52;;;;;;;15.90;3.00;;;;;;;7.84;55.58;101544.19;5086715;28;20055;-57
2023/03/27 09:54:54;;;;;;;16.77;3.20;;;;;;;7.49;59.01;101555.63;5103604;28;20043;-57
2023/03/27 09:57:32;;;;;;;14.77;3.10;;;;;;;7.04;58.04;101558.03;5083078;28;20050;-57
2023/03/27 10:00:14;;;;;;;11.70;2.83;;;;;;;6.96;56.78;101555.13;5080680;28;20048;-57
2023/03/27 10:02:44;;;;;;;15.15;2.65;;;;;;;7.05;57.13;101559.75;5094863;28;20116;-57
2023/03/27 10:05:20;;;;;;;14.68;2.42;;;;;;;8.74;53.19;101568.09;5103623;28;20439;-57
2023/03/27 10:07:53;;;;;;;15.02;3.08;;;;;;;11.72;45.38;101562.16;5078987;28;20126;-57
2023/03/27 10:10:43;;;;;;;14.98;3.00;;;;;;;14.23;39.76;101574.28;5080427;28;20036;-58
2023/03/27 10:13:28;;;;;;;9.95;2.50;;;;;;;13.82;38.52;101575.69;5091714;28;20063;-58
2023/03/27 10:16:00;;;;;;;11.48;2.35;;;;;;;13.70;38.34;101573.41;5074530;28;20044;-58
2023/03/27 10:18:42;;;;;;;16.55;2.70;;;;;;;11.78;41.57;101560.75;5097987;28;20092;-57
2023/03/27 10:21:32;;;;;;;13.85;2.70;;;;;;;10.48;45.38;101560.84;5088839;28;20049;-57
2023/03/27 10:24:04;;;;;;;16.58;2.70;;;;;;;9.45;47.06;101567.69;5109041;28;20040;-57
2023/03/27 10:26:46;;;;;;;22.08;2.60;;;;;;;11.09;44.87;101567.84;5065126;28;20070;-57
2023/03/27 10:29:25;;;;;;;12.82;2.42;;;;;;;11.78;44.76;101568.72;5091703;28;20040;-57
2023/03/27 10:31:54;;;;;;;15.25;2.65;;;;;;;10.50;46.09;101554.41;5100158;28;20515;-57
2023/03/27 10:34:38;;;;;;;16.98;2.92;;;;;;;11.73;43.18;101563.81;5095330;28;20611;-58
2023/03/27 10:37:28;;;;;;;14.20;2.78;;;;;;;12.28;43.45;101557.88;5082471;28;20043;-58
2023/03/27 10:40:17;;;;;;;10.25;2.13;;;;;;;10.96;43.36;101562.78;5077396;28;20048;-57
2023/03/27 10:42:47;;;;;;;11.88;2.15;;;;;;;10.42;45.62;101559.53;5075617;28;20056;-57
2023/03/27 10:45:18;;;;;;;15.20;2.17;;;;;;;10.91;44.92;101568.53;5103558;28;20052;-57
2023/03/27 10:47:53;;;;;;;8.00;2.13;;;;;;;11.19;45.11;101562.53;5084916;28;20054;-58
2023/03/27 10:50:32;;;;;;;10.48;1.95;;;;;;;11.29;44.79;101569.53;5101451;28;20451;-57
2023/03/27 10:53:15;;;;;;;8.45;2.58;;;;;;;10.99;43.07;101573.16;5097148;28;20902;-57
2023/03/27 10:56:18;;;;;;;9.00;2.00;;;;;;;10.24;45.62;101572.56;5066219;28;20493;-57
2023/03/27 10:58:54;;;;;;;11.65;2.15;;;;;;;10.08;46.25;101577.50;5080661;28;20075;-59
2023/03/27 11:01:48;;;;;;;5.68;2.00;;;;;;;11.28;42.46;101586.47;5100187;28;20079;-59
2023/03/27 11:04:43;;;;;;;8.45;2.00;;;;;;;10.43;44.16;101584.28;5078082;28;20035;-58
2023/03/27 11:07:19;;;;;;;8.23;2.08;;;;;;;9.89;45.44;101579.03;5080887;28;20048;-58
2023/03/27 11:09:56;;;;;;;10.00;2.00;;;;;;;8.79;49.08;101597.69;5075339;28;20132;-58
2023/03/27 11:12:32;;;;;;;7.15;1.70;;;;;;;8.20;50.59;101597.84;5098895;28;20385;-58
2023/03/27 11:15:25;;;;;;;6.85;1.70;;;;;;;7.63;54.51;101602.13;5093433;28;20397;-57
2023/03/27 11:18:01;;;;;;;11.20;1.88;;;;;;;6.98;57.93;101603.34;5088998;28;20045;-57
2023/03/27 11:20:43;;;;;;;9.65;1.90;;;;;;;6.83;62.53;101606.13;5082199;28;20130;-58
2023/03/27 11:23:27;;;;;;;9.35;2.20;;;;;;;6.24;67.73;101627.78;5090209;28;20108;-57
2023/03/27 11:26:16;;;;;;;10.98;1.60;;;;;;;5.48;73.56;101641.56;5073202;28;20046;-58
2023/03/27 11:29:24;;;;;;;7.47;2.03;;;;;;;5.09;80.04;101662.38;5098873;28;20043;-57
2023/03/27 11:31:58;;;;;;;4.05;1.40;;;;;;;4.92;79.67;101673.13;5086789;28;20044;-57
2023/03/27 11:34:56;;;;;;;;;;;;;;;4.68;82.32;101672.84;5085970;28;20068;-56
2023/03/27 11:38:07;;;;;;;4.43;1.42;;;;;;;4.72;83.18;101662.03;5088451;28;20360;-56
2023/03/27 11:40:44;;;;;;;4.28;1.63;;;;;;;5.12;81.45;101649.06;5081029;28;20094;-57
2023/03/27 11:43:13;;;;;;;7.05;1.70;;;;;;;5.92;77.93;101651.81;5095716;28;20071;-56
2023/03/27 11:45:54;;;;;;;5.63;1.80;;;;;;;7.05;75.13;101657.34;5070018;28;20128;-56
2023/03/27 11:49:01;;;;;;;6.10;1.60;;;;;;;8.56;66.40;101660.31;5089668;28;20048;-56
2023/03/27 11:51:58;;;;;;;6.57;1.40;;;;;;;9.53;62.18;101673.00;5071453;28;21070;-56
2023/03/27 11:55:05;;;;;;;5.95;1.70;;;;;;;10.32;57.98;101664.75;5072550;28;20499;-58
2023/03/27 11:57:49;;;;;;;6.43;1.70;;;;;;;10.89;57.03;101667.84;5080246;28;20046;-57
2023/03/27 12:00:33;;;;;;;4.50;1.40;;;;;;;11.46;52.17;101660.16;5066588;28;20050;-56
2023/03/27 12:03:24;;;;;;;4.97;1.40;;;;;;;11.70;51.51;101663.28;5094776;28;20054;-56
2023/03/27 12:06:15;;;;;;;4.88;1.48;;;;;;;12.81;46.60;101658.38;5080760;28;20043;-57
2023/03/27 12:09:05;;;;;;;5.68;1.67;;;;;;;13.47;45.21;101651.19;5076688;28;20048;-56
2023/03/27 12:12:03;;;;;;;5.53;1.40;;;;;;;14.94;40.41;101667.47;5087319;28;20130;-57
2023/03/27 12:14:57;;;;;;;5.70;1.52;;;;;;;15.93;38.47;101663.25;5079295;28;20052;-57
2023/03/27 12:17:43;;;;;;;5.40;1.30;;;;;;;13.50;39.98;101652.69;5086323;28;20052;-57